createdAt,value
2022-12-25T00:04:32.200Z,7.88
2022-12-25T00:10:55.184Z,7.92
2022-12-25T00:17:15.276Z,7.96
2022-12-25T00:23:38.217Z,8.01
2022-12-25T00:29:58.225Z,8.06
2022-12-25T00:36:21.257Z,8.1
2022-12-25T00:42:41.160Z,8.13
2022-12-25T00:49:04.279Z,8.13
2022-12-25T00:55:24.239Z,8.11
2022-12-25T01:01:47.341Z,8.04
2022-12-25T01:08:07.171Z,8
2022-12-25T01:14:30.272Z,8
2022-12-25T01:20:50.150Z,7.99
2022-12-25T01:27:13.224Z,7.97
2022-12-25T01:33:33.257Z,7.98
2022-12-25T01:39:56.241Z,8.02
2022-12-25T01:46:16.235Z,8.1
2022-12-25T01:52:39.227Z,8.19
2022-12-25T01:58:59.166Z,8.27
2022-12-25T02:05:22.211Z,8.34
2022-12-25T02:11:42.221Z,8.39
2022-12-25T02:18:05.209Z,8.45
2022-12-25T02:24:25.189Z,8.5
2022-12-25T02:30:48.321Z,8.55
2022-12-25T02:37:08.172Z,8.6
2022-12-25T02:43:31.246Z,8.64
2022-12-25T02:49:51.209Z,8.67
2022-12-25T02:56:14.221Z,8.71
2022-12-25T03:02:34.261Z,8.74
2022-12-25T03:08:57.236Z,8.73
2022-12-25T03:15:17.190Z,8.68
2022-12-25T03:21:40.251Z,8.63
2022-12-25T03:28:00.254Z,8.62
2022-12-25T03:34:23.224Z,8.63
2022-12-25T03:40:43.156Z,8.65
2022-12-25T03:47:06.253Z,8.69
2022-12-25T03:53:26.177Z,8.73
2022-12-25T03:59:49.187Z,8.76
2022-12-25T04:06:09.188Z,8.79
2022-12-25T04:12:32.314Z,8.78
2022-12-25T04:18:52.203Z,8.79
2022-12-25T04:25:15.256Z,8.8
2022-12-25T04:41:41.113Z,8.89
2022-12-25T04:48:01.180Z,8.93
2022-12-25T04:54:24.190Z,8.95
2022-12-25T05:00:44.208Z,8.97
2022-12-25T05:07:07.208Z,8.99
2022-12-25T05:13:27.239Z,8.98
2022-12-25T05:19:50.184Z,8.99
2022-12-25T05:26:10.213Z,9.01
2022-12-25T05:32:33.198Z,9.01
2022-12-25T05:38:53.221Z,9
2022-12-25T05:45:16.203Z,9.01
2022-12-25T05:51:36.171Z,9.03
2022-12-25T05:57:59.227Z,9.05
2022-12-25T06:04:19.216Z,9.04
2022-12-25T06:10:42.186Z,9.01
2022-12-25T06:17:02.304Z,9.01
2022-12-25T06:23:25.205Z,9.01
2022-12-25T06:29:45.217Z,9.02
2022-12-25T06:36:08.193Z,9.03
2022-12-25T06:42:28.191Z,9.03
2022-12-25T06:48:51.172Z,9.02
2022-12-25T06:55:11.220Z,9.03
2022-12-25T07:01:34.325Z,9.05
2022-12-25T07:07:54.189Z,9.06
2022-12-25T07:14:21.919Z,9.09
2022-12-25T07:20:37.185Z,9.1
2022-12-25T07:27:00.188Z,9.1
2022-12-25T07:33:20.177Z,9.1
2022-12-25T07:39:43.184Z,9.14
2022-12-25T07:46:03.219Z,9.18
2022-12-25T07:52:26.257Z,9.23
2022-12-25T07:58:46.172Z,9.28
2022-12-25T08:05:09.176Z,9.33
2022-12-25T08:11:29.188Z,9.36
2022-12-25T08:17:52.150Z,9.38
2022-12-25T08:24:12.182Z,9.4
2022-12-25T08:30:35.220Z,9.42
2022-12-25T08:36:55.155Z,9.43
2022-12-25T08:43:18.209Z,9.44
2022-12-25T08:49:38.177Z,9.45
2022-12-25T08:56:01.205Z,9.47
2022-12-25T09:02:21.373Z,9.49
2022-12-25T09:08:48.942Z,9.5
2022-12-25T09:15:04.210Z,9.51
2022-12-25T09:21:27.193Z,9.53
2022-12-25T09:27:47.213Z,9.55
2022-12-25T09:34:12.565Z,9.58
2022-12-25T09:40:30.204Z,9.6
2022-12-25T09:46:53.350Z,9.6
2022-12-25T10:04:03.183Z,9.63
2022-12-25T10:10:26.166Z,9.64
2022-12-25T10:16:46.179Z,9.66
2022-12-25T10:23:09.222Z,9.68
2022-12-25T10:29:29.175Z,9.7
2022-12-25T10:35:52.207Z,9.74
2022-12-25T10:42:12.181Z,9.76
2022-12-25T10:48:35.190Z,9.77
2022-12-25T10:54:55.329Z,9.77
2022-12-25T11:01:18.539Z,9.76
2022-12-25T11:07:38.438Z,9.74
2022-12-25T11:14:01.272Z,9.75
2022-12-25T11:20:21.300Z,9.81
2022-12-25T11:26:44.193Z,9.88
2022-12-25T11:33:04.206Z,9.99
2022-12-25T11:39:27.208Z,10.14
2022-12-25T11:45:47.181Z,10.29
2022-12-25T11:52:10.228Z,10.41
2022-12-25T11:58:30.346Z,10.5
2022-12-25T12:04:53.191Z,10.51
2022-12-25T12:11:13.185Z,10.57
2022-12-25T12:17:36.843Z,10.67
2022-12-25T12:23:57.214Z,10.78
2022-12-25T12:30:20.181Z,10.83
2022-12-25T12:36:40.233Z,10.86
2022-12-25T12:43:03.217Z,10.88
2022-12-25T12:49:23.209Z,10.91
2022-12-25T12:55:46.222Z,10.94
2022-12-25T13:02:06.386Z,10.95
2022-12-25T13:08:29.198Z,10.97
2022-12-25T13:14:49.236Z,10.98
2022-12-25T13:21:12.175Z,10.98
2022-12-25T13:27:32.270Z,10.99
2022-12-25T13:33:55.213Z,10.98
2022-12-25T13:40:15.184Z,10.96
2022-12-25T13:46:38.243Z,10.96
2022-12-25T13:52:58.186Z,10.96
2022-12-25T13:59:21.199Z,10.96
2022-12-25T14:05:43.199Z,10.94
2022-12-25T14:12:04.207Z,10.9
2022-12-25T14:18:24.202Z,10.85
2022-12-25T14:24:47.255Z,10.83
2022-12-25T14:31:07.361Z,10.81
2022-12-25T14:37:30.162Z,10.8
2022-12-25T14:43:50.211Z,10.77
2022-12-25T14:50:13.264Z,10.75
2022-12-25T14:56:33.162Z,10.77
2022-12-25T15:02:56.425Z,10.8
2022-12-25T15:26:01.711Z,10.74
2022-12-25T15:32:21.146Z,10.74
2022-12-25T15:38:44.202Z,10.8
2022-12-25T15:45:04.214Z,10.9
2022-12-25T15:51:27.183Z,11.12
2022-12-25T15:57:47.206Z,11.49
2022-12-25T16:04:10.211Z,11.82
2022-12-25T16:10:34.991Z,12.13
2022-12-25T16:16:53.198Z,12.36
2022-12-25T16:23:13.183Z,12.37
2022-12-25T16:29:36.244Z,12.41
2022-12-25T16:35:56.191Z,12.42
2022-12-25T16:42:19.228Z,12.4
2022-12-25T16:48:39.169Z,12.4
2022-12-25T16:55:02.165Z,12.5
2022-12-25T17:01:22.264Z,12.64
2022-12-25T17:07:45.222Z,12.72
2022-12-25T17:14:05.201Z,12.74
2022-12-25T17:20:28.223Z,12.78
2022-12-25T17:26:48.217Z,12.77
2022-12-25T17:33:11.200Z,12.65
2022-12-25T17:39:31.212Z,12.59
2022-12-25T17:45:54.205Z,12.65
2022-12-25T17:52:14.174Z,12.69
2022-12-25T17:58:37.225Z,12.74
2022-12-25T18:04:57.182Z,12.77
2022-12-25T18:11:20.236Z,12.8
2022-12-25T18:17:40.199Z,12.79
2022-12-25T18:24:03.226Z,12.84
2022-12-25T18:30:23.166Z,12.9
2022-12-25T18:36:46.240Z,12.95
2022-12-25T18:43:06.170Z,12.98
2022-12-25T18:49:29.196Z,13.01
2022-12-25T18:55:49.208Z,13.05
2022-12-25T19:02:12.201Z,13.06
2022-12-25T19:08:32.188Z,13.16
2022-12-25T19:14:55.206Z,13.16
2022-12-25T19:21:15.149Z,13.15
2022-12-25T19:27:38.213Z,13.14
2022-12-25T19:33:58.184Z,13.16
2022-12-25T19:40:21.193Z,13.21
2022-12-25T19:46:41.190Z,13.34
2022-12-25T19:53:04.193Z,13.41
2022-12-25T19:59:24.179Z,13.47
2022-12-25T20:05:47.148Z,13.49
2022-12-25T20:12:07.212Z,13.51
2022-12-25T20:18:30.170Z,13.49
2022-12-25T20:24:50.154Z,13.41
2022-12-25T20:31:13.217Z,13.33
2022-12-25T20:46:44.441Z,13.12
2022-12-25T20:53:04.140Z,13
2022-12-25T20:59:29.738Z,12.92
2022-12-25T21:05:47.196Z,12.84
2022-12-25T21:12:10.158Z,12.77
2022-12-25T21:18:30.191Z,12.72
2022-12-25T21:24:53.205Z,12.74
2022-12-25T21:31:13.202Z,12.74
2022-12-25T21:37:36.231Z,12.8
2022-12-25T21:43:56.186Z,12.86
2022-12-25T21:50:19.193Z,12.9
2022-12-25T21:56:43.816Z,12.92
2022-12-25T22:03:02.314Z,12.98
2022-12-25T22:09:22.200Z,12.98
2022-12-25T22:15:45.171Z,13
2022-12-25T22:22:05.213Z,12.98
2022-12-25T22:28:28.175Z,12.96
2022-12-25T22:34:48.149Z,12.95
2022-12-25T22:41:11.230Z,12.93
2022-12-25T22:47:31.193Z,12.93
2022-12-25T22:53:56.470Z,12.95
2022-12-25T23:00:14.214Z,12.94
2022-12-25T23:23:11.200Z,12.95
2022-12-25T23:29:31.160Z,13.04
2022-12-25T23:35:54.194Z,13.1
2022-12-25T23:42:14.240Z,13.07
2022-12-25T23:48:37.205Z,13.05
2022-12-25T23:54:57.173Z,13.02
